Jackson, MS

6:31 PM CDT on May 20, 2019 (GMT -0500)
Richland | | Change Station
Active Advisory: Flood Warning

Elev 292 ft 32.21 °N, 90.17 °W | Updated 16 seconds ago

Partly Cloudy
Partly Cloudy
88 °F
Feels Like 98 °F
N
0
Wind Variable Wind from SSW
Gusts 0.0 mph

Today
High -- | Low -- °F
--% Chance of Precip.
Yesterday
High -- | Low -- °F
Precip. -- in
Pressure 29.89 in
Visibility 10.0 miles
Clouds Scattered Clouds 4700 ft
Heat Index 98 °F
Dew Point 75 °F
Humidity 66%
Rainfall 0.00 in
Snow Depth Not available.
5:59 AM 7:55 PM
Waning Gibbous, 95% visible
METAR KHKS 202253Z 19008KT 10SM SCT047 31/22 A2992 RMK AO2 SLP122 T03110217
Pressure 29.89 in
Visibility 10.0 miles
Clouds Scattered Clouds 4700 ft
Heat Index 98 °F
Dew Point 75 °F
Humidity 66%
Rainfall 0.00 in
Snow Depth Not available.
5:59 AM 7:55 PM
Waning Gibbous, 95% visible
METAR KHKS 202253Z 19008KT 10SM SCT047 31/22 A2992 RMK AO2 SLP122 T03110217

Get Your Daily Forecast Email!

Thanks for signing up!

Be on the lookout for a verification email in your inbox.

You'll start receiving severe weather alerts in your inbox..

×

10-Day Weather Forecast

Almanac

Astronomy

May. 20, 2019 Rise Set
Actual Time
Civil Twilight
Nautical Twilight
Astronomical Twilight
Moon
Length of Visible Light
Length of Day
Tomorrow will be .
, % of the Moon is Illuminated

Today's Extremes

State Highs State Lows

Community

WunderPhotos

Category 6

Welcome to Category 6. This is the collective home for Weather Underground's featured writeups by Dr. Jeff Masters (right), Bob Henson (left), Chris Burt, and other regular contributors.

Nearby

Air Quality

  Air Quality AQ Index Pollutant
Not available.

Snow Depth

Station Depth Elevation

Earthquake Activity

City Distance Mag. Time & Date
Minimum magnitude displayed is 2.5.

Coastal Water Temperatures

Place Temperature

Stations

Nearby Weather Stations

Station Location Temp. Windchill Dew Point Humidity Wind Precip. Elev Updated Type
                   

Watches & Warnings

Flood Warning
Issued: 10:58 AM CDT May. 20, 2019 – National Weather Service


The Flood Warning continues for
the Big Black River near Bovina
* until Friday morning.
* At 10:15 am Monday the stage was 31.7 feet.
* Minor flooding is occurring and minor flooding is forecast.
* Flood stage is 28.0 feet.
* Forecast... the river will continue falling and will fall below
flood stage on Thursday before midnight.


              Flood observed forecast 7 am crest
location stg stg day time Tue Wed Thu crest time date

Lower Big Black River
Bovina 28 31.7 Mon 10 am 30.6 30.2 29.5




Lat... Lon 3217 9093 3224 9078 3256 9064 3245 9052
      3218 9065 3204 9102